Terminal Aerodrome Forecast
Issued by NWS

Home | Current Version | Previous Version | Graphics & Text | Print | Product List | Glossary On
Versions: 1 2 3 4 5 6 7 8 9 10 11 12 13 14 15 16 17 18
887
FTUS43 KIWX 291050 AAA
TAFSBN
TAF AMD
KSBN 291050Z 2911/3006 13005KT P6SM OVC015
     FM291200 VRB04KT 5SM BR OVC008
      TEMPO 2912/2913 3SM BR OVC005
     FM291500 04005KT P6SM OVC015
     FM291800 02006KT P6SM BKN025=

USA.gov is the U.S. government's official web portal to all federal, state and local government web resources and services.